sensor_id;sensor_type;location;lat;lon;timestamp;temperature;humidity
24518;DHT22;12678;51.336;12.406;2024-02-04T00:01:39;10.00;99.90
24518;DHT22;12678;51.336;12.406;2024-02-04T00:04:05;10.00;99.90
24518;DHT22;12678;51.336;12.406;2024-02-04T00:06:30;10.10;99.90
24518;DHT22;12678;51.336;12.406;2024-02-04T00:08:56;10.10;99.90
24518;DHT22;12678;51.336;12.406;2024-02-04T00:11:21;10.10;99.90
24518;DHT22;12678;51.336;12.406;2024-02-04T00:13:47;10.10;99.90
24518;DHT22;12678;51.336;12.406;2024-02-04T00:16:12;10.00;99.90
24518;DHT22;12678;51.336;12.406;2024-02-04T00:18:38;10.00;99.90
24518;DHT22;12678;51.336;12.406;2024-02-04T00:21:04;10.00;99.90
24518;DHT22;12678;51.336;12.406;2024-02-04T00:23:30;10.00;99.90
24518;DHT22;12678;51.336;12.406;2024-02-04T00:25:55;10.00;99.90
24518;DHT22;12678;51.336;12.406;2024-02-04T00:28:21;10.00;99.90
24518;DHT22;12678;51.336;12.406;2024-02-04T00:30:46;10.00;99.90
24518;DHT22;12678;51.336;12.406;2024-02-04T00:33:14;10.00;99.90
24518;DHT22;12678;51.336;12.406;2024-02-04T00:35:40;9.90;99.90
24518;DHT22;12678;51.336;12.406;2024-02-04T00:38:05;9.90;99.90
24518;DHT22;12678;51.336;12.406;2024-02-04T00:40:31;9.80;99.90
24518;DHT22;12678;51.336;12.406;2024-02-04T00:42:57;9.70;99.90
24518;DHT22;12678;51.336;12.406;2024-02-04T00:45:22;9.70;99.90
24518;DHT22;12678;51.336;12.406;2024-02-04T00:47:49;9.60;99.90
24518;DHT22;12678;51.336;12.406;2024-02-04T00:50:14;9.60;99.90
24518;DHT22;12678;51.336;12.406;2024-02-04T00:52:40;9.60;99.90
24518;DHT22;12678;51.336;12.406;2024-02-04T00:55:06;9.60;99.90
24518;DHT22;12678;51.336;12.406;2024-02-04T00:57:31;9.60;99.90
24518;DHT22;12678;51.336;12.406;2024-02-04T00:59:57;9.60;99.90
24518;DHT22;12678;51.336;12.406;2024-02-04T01:02:22;9.60;99.90
24518;DHT22;12678;51.336;12.406;2024-02-04T01:04:48;9.60;99.90
24518;DHT22;12678;51.336;12.406;2024-02-04T01:07:15;9.70;99.90
24518;DHT22;12678;51.336;12.406;2024-02-04T01:09:41;9.70;99.90
24518;DHT22;12678;51.336;12.406;2024-02-04T01:12:07;9.70;99.90
24518;DHT22;12678;51.336;12.406;2024-02-04T01:14:33;9.80;99.90
24518;DHT22;12678;51.336;12.406;2024-02-04T01:16:58;9.80;99.90
24518;DHT22;12678;51.336;12.406;2024-02-04T01:19:24;9.80;99.90
24518;DHT22;12678;51.336;12.406;2024-02-04T01:21:49;9.80;99.90
24518;DHT22;12678;51.336;12.406;2024-02-04T01:24:15;9.80;99.90
24518;DHT22;12678;51.336;12.406;2024-02-04T01:26:40;9.80;99.90
24518;DHT22;12678;51.336;12.406;2024-02-04T01:29:06;9.80;99.90
24518;DHT22;12678;51.336;12.406;2024-02-04T01:31:32;9.80;99.90
24518;DHT22;12678;51.336;12.406;2024-02-04T01:33:58;9.80;99.90
24518;DHT22;12678;51.336;12.406;2024-02-04T01:36:23;9.80;99.90
24518;DHT22;12678;51.336;12.406;2024-02-04T01:38:49;9.80;99.90
24518;DHT22;12678;51.336;12.406;2024-02-04T01:41:14;9.80;99.90
24518;DHT22;12678;51.336;12.406;2024-02-04T01:43:40;9.70;99.90
24518;DHT22;12678;51.336;12.406;2024-02-04T01:46:05;9.70;99.90
24518;DHT22;12678;51.336;12.406;2024-02-04T01:48:31;9.80;99.90
24518;DHT22;12678;51.336;12.406;2024-02-04T01:50:58;9.80;99.90
24518;DHT22;12678;51.336;12.406;2024-02-04T01:53:26;9.80;99.90
24518;DHT22;12678;51.336;12.406;2024-02-04T01:55:53;9.80;99.90
24518;DHT22;12678;51.336;12.406;2024-02-04T01:58:20;9.70;99.90
24518;DHT22;12678;51.336;12.406;2024-02-04T02:00:46;9.70;99.90
24518;DHT22;12678;51.336;12.406;2024-02-04T02:03:14;9.70;99.90
24518;DHT22;12678;51.336;12.406;2024-02-04T02:05:40;9.60;99.90
24518;DHT22;12678;51.336;12.406;2024-02-04T02:08:06;9.60;99.90
24518;DHT22;12678;51.336;12.406;2024-02-04T02:10:32;9.60;99.90
24518;DHT22;12678;51.336;12.406;2024-02-04T02:13:13;9.70;99.90
24518;DHT22;12678;51.336;12.406;2024-02-04T02:15:45;9.70;99.90
24518;DHT22;12678;51.336;12.406;2024-02-04T02:18:15;9.70;99.90
24518;DHT22;12678;51.336;12.406;2024-02-04T02:21:01;9.70;99.90
24518;DHT22;12678;51.336;12.406;2024-02-04T02:23:43;9.70;99.90
24518;DHT22;12678;51.336;12.406;2024-02-04T02:26:13;9.80;99.90
24518;DHT22;12678;51.336;12.406;2024-02-04T02:28:40;9.80;99.90
24518;DHT22;12678;51.336;12.406;2024-02-04T02:31:05;9.70;99.90
24518;DHT22;12678;51.336;12.406;2024-02-04T02:33:31;9.80;99.90
24518;DHT22;12678;51.336;12.406;2024-02-04T02:35:58;9.70;99.90
24518;DHT22;12678;51.336;12.406;2024-02-04T02:38:40;9.70;99.90
24518;DHT22;12678;51.336;12.406;2024-02-04T02:41:10;9.60;99.90
24518;DHT22;12678;51.336;12.406;2024-02-04T02:43:39;9.60;99.90
24518;DHT22;12678;51.336;12.406;2024-02-04T02:46:07;9.60;99.90
24518;DHT22;12678;51.336;12.406;2024-02-04T02:48:32;9.50;99.90
24518;DHT22;12678;51.336;12.406;2024-02-04T02:50:58;9.50;99.90
24518;DHT22;12678;51.336;12.406;2024-02-04T02:53:24;9.50;99.90
24518;DHT22;12678;51.336;12.406;2024-02-04T02:55:49;9.50;99.90
24518;DHT22;12678;51.336;12.406;2024-02-04T02:58:15;9.40;99.90
24518;DHT22;12678;51.336;12.406;2024-02-04T03:00:40;9.40;99.90
24518;DHT22;12678;51.336;12.406;2024-02-04T03:03:06;9.30;99.90
24518;DHT22;12678;51.336;12.406;2024-02-04T03:05:31;9.30;99.90
24518;DHT22;12678;51.336;12.406;2024-02-04T03:07:58;9.20;99.90
24518;DHT22;12678;51.336;12.406;2024-02-04T03:10:23;9.20;99.90
24518;DHT22;12678;51.336;12.406;2024-02-04T03:12:49;9.20;99.90
24518;DHT22;12678;51.336;12.406;2024-02-04T03:15:14;9.30;99.90
24518;DHT22;12678;51.336;12.406;2024-02-04T03:17:40;9.20;99.90
24518;DHT22;12678;51.336;12.406;2024-02-04T03:20:06;9.20;99.90
24518;DHT22;12678;51.336;12.406;2024-02-04T03:22:31;9.20;99.90
24518;DHT22;12678;51.336;12.406;2024-02-04T03:24:57;9.30;99.90
24518;DHT22;12678;51.336;12.406;2024-02-04T03:27:23;9.30;99.90
24518;DHT22;12678;51.336;12.406;2024-02-04T03:29:49;9.30;99.90
24518;DHT22;12678;51.336;12.406;2024-02-04T03:32:14;9.30;99.90
24518;DHT22;12678;51.336;12.406;2024-02-04T03:34:43;9.30;99.90
24518;DHT22;12678;51.336;12.406;2024-02-04T03:37:08;9.30;99.90
24518;DHT22;12678;51.336;12.406;2024-02-04T03:39:34;9.30;99.90
24518;DHT22;12678;51.336;12.406;2024-02-04T03:41:59;9.30;99.90
24518;DHT22;12678;51.336;12.406;2024-02-04T03:44:25;9.30;99.90
24518;DHT22;12678;51.336;12.406;2024-02-04T03:46:51;9.40;99.90
24518;DHT22;12678;51.336;12.406;2024-02-04T03:49:18;9.40;99.90
24518;DHT22;12678;51.336;12.406;2024-02-04T03:51:44;9.40;99.90
24518;DHT22;12678;51.336;12.406;2024-02-04T03:54:09;9.40;99.90
24518;DHT22;12678;51.336;12.406;2024-02-04T03:56:35;9.40;99.90
24518;DHT22;12678;51.336;12.406;2024-02-04T03:59:00;9.50;99.90
24518;DHT22;12678;51.336;12.406;2024-02-04T04:01:26;9.50;99.90
24518;DHT22;12678;51.336;12.406;2024-02-04T04:03:51;9.50;99.90
24518;DHT22;12678;51.336;12.406;2024-02-04T04:06:17;9.50;99.90
24518;DHT22;12678;51.336;12.406;2024-02-04T04:08:43;9.50;99.90
24518;DHT22;12678;51.336;12.406;2024-02-04T04:11:09;9.50;99.90
24518;DHT22;12678;51.336;12.406;2024-02-04T04:13:35;9.60;99.90
24518;DHT22;12678;51.336;12.406;2024-02-04T04:16:02;9.60;99.90
24518;DHT22;12678;51.336;12.406;2024-02-04T04:18:27;9.60;99.90
24518;DHT22;12678;51.336;12.406;2024-02-04T04:20:53;9.70;99.90
24518;DHT22;12678;51.336;12.406;2024-02-04T04:23:18;9.60;99.90
24518;DHT22;12678;51.336;12.406;2024-02-04T04:25:44;9.70;99.90
24518;DHT22;12678;51.336;12.406;2024-02-04T04:28:10;9.70;99.90
24518;DHT22;12678;51.336;12.406;2024-02-04T04:30:35;9.70;99.90
24518;DHT22;12678;51.336;12.406;2024-02-04T04:33:01;9.70;99.90
24518;DHT22;12678;51.336;12.406;2024-02-04T04:35:26;9.70;99.90
24518;DHT22;12678;51.336;12.406;2024-02-04T04:37:52;9.70;99.90
24518;DHT22;12678;51.336;12.406;2024-02-04T04:40:18;9.70;99.90
24518;DHT22;12678;51.336;12.406;2024-02-04T04:42:43;9.70;99.90
24518;DHT22;12678;51.336;12.406;2024-02-04T04:45:09;9.70;99.90
24518;DHT22;12678;51.336;12.406;2024-02-04T04:47:36;9.70;99.90
24518;DHT22;12678;51.336;12.406;2024-02-04T04:50:02;9.70;99.90
24518;DHT22;12678;51.336;12.406;2024-02-04T04:52:28;9.70;99.90
24518;DHT22;12678;51.336;12.406;2024-02-04T04:54:54;9.60;99.90
24518;DHT22;12678;51.336;12.406;2024-02-04T04:57:20;9.60;99.90
24518;DHT22;12678;51.336;12.406;2024-02-04T04:59:46;9.60;99.90
24518;DHT22;12678;51.336;12.406;2024-02-04T05:02:11;9.60;99.90
24518;DHT22;12678;51.336;12.406;2024-02-04T05:04:37;9.60;99.90
24518;DHT22;12678;51.336;12.406;2024-02-04T05:07:02;9.60;99.90
24518;DHT22;12678;51.336;12.406;2024-02-04T05:09:28;9.60;99.90
24518;DHT22;12678;51.336;12.406;2024-02-04T05:11:53;9.60;99.90
24518;DHT22;12678;51.336;12.406;2024-02-04T05:14:19;9.60;99.90
24518;DHT22;12678;51.336;12.406;2024-02-04T05:16:45;9.60;99.90
24518;DHT22;12678;51.336;12.406;2024-02-04T05:19:11;9.60;99.90
24518;DHT22;12678;51.336;12.406;2024-02-04T05:21:40;9.60;99.90
24518;DHT22;12678;51.336;12.406;2024-02-04T05:24:06;9.60;99.90
24518;DHT22;12678;51.336;12.406;2024-02-04T05:26:32;9.60;99.90
24518;DHT22;12678;51.336;12.406;2024-02-04T05:28:57;9.50;99.90
24518;DHT22;12678;51.336;12.406;2024-02-04T05:31:23;9.60;99.90
24518;DHT22;12678;51.336;12.406;2024-02-04T05:33:48;9.60;99.90
24518;DHT22;12678;51.336;12.406;2024-02-04T05:36:14;9.50;99.90
24518;DHT22;12678;51.336;12.406;2024-02-04T05:38:42;9.50;99.90
24518;DHT22;12678;51.336;12.406;2024-02-04T05:41:07;9.50;99.90
24518;DHT22;12678;51.336;12.406;2024-02-04T05:43:33;9.50;99.90
24518;DHT22;12678;51.336;12.406;2024-02-04T05:45:58;9.50;99.90
24518;DHT22;12678;51.336;12.406;2024-02-04T05:48:24;9.40;99.90
24518;DHT22;12678;51.336;12.406;2024-02-04T05:50:49;9.40;99.90
24518;DHT22;12678;51.336;12.406;2024-02-04T05:53:15;9.40;99.90
24518;DHT22;12678;51.336;12.406;2024-02-04T05:55:41;9.40;99.90
24518;DHT22;12678;51.336;12.406;2024-02-04T05:58:06;9.40;99.90
24518;DHT22;12678;51.336;12.406;2024-02-04T06:00:32;9.40;99.90
24518;DHT22;12678;51.336;12.406;2024-02-04T06:02:57;9.50;99.90
24518;DHT22;12678;51.336;12.406;2024-02-04T06:05:23;9.50;99.90
24518;DHT22;12678;51.336;12.406;2024-02-04T06:07:48;9.50;99.90
24518;DHT22;12678;51.336;12.406;2024-02-04T06:10:14;9.50;99.90
24518;DHT22;12678;51.336;12.406;2024-02-04T06:12:40;9.50;99.90
24518;DHT22;12678;51.336;12.406;2024-02-04T06:15:14;9.60;99.90
24518;DHT22;12678;51.336;12.406;2024-02-04T06:17:40;9.50;99.90
24518;DHT22;12678;51.336;12.406;2024-02-04T06:20:06;9.60;99.90
24518;DHT22;12678;51.336;12.406;2024-02-04T06:22:32;9.60;99.90
24518;DHT22;12678;51.336;12.406;2024-02-04T06:24:57;9.60;99.90
24518;DHT22;12678;51.336;12.406;2024-02-04T06:27:23;9.60;99.90
24518;DHT22;12678;51.336;12.406;2024-02-04T06:29:48;9.60;99.90
24518;DHT22;12678;51.336;12.406;2024-02-04T06:32:14;9.70;99.90
24518;DHT22;12678;51.336;12.406;2024-02-04T06:34:46;9.70;99.90
24518;DHT22;12678;51.336;12.406;2024-02-04T06:37:25;9.70;99.90
24518;DHT22;12678;51.336;12.406;2024-02-04T06:39:52;9.70;99.90
24518;DHT22;12678;51.336;12.406;2024-02-04T06:42:17;9.70;99.90
24518;DHT22;12678;51.336;12.406;2024-02-04T06:44:46;9.70;99.90
24518;DHT22;12678;51.336;12.406;2024-02-04T06:47:12;9.80;99.90
24518;DHT22;12678;51.336;12.406;2024-02-04T06:49:39;9.80;99.90
24518;DHT22;12678;51.336;12.406;2024-02-04T06:52:05;9.80;99.90
24518;DHT22;12678;51.336;12.406;2024-02-04T06:54:31;9.80;99.90
24518;DHT22;12678;51.336;12.406;2024-02-04T06:56:56;9.80;99.90
24518;DHT22;12678;51.336;12.406;2024-02-04T06:59:22;9.80;99.90
24518;DHT22;12678;51.336;12.406;2024-02-04T07:01:47;9.80;99.90
24518;DHT22;12678;51.336;12.406;2024-02-04T07:04:13;9.90;99.90
24518;DHT22;12678;51.336;12.406;2024-02-04T07:06:38;9.90;99.90
24518;DHT22;12678;51.336;12.406;2024-02-04T07:09:04;9.90;99.90
24518;DHT22;12678;51.336;12.406;2024-02-04T07:11:29;9.90;99.90
24518;DHT22;12678;51.336;12.406;2024-02-04T07:13:55;9.80;99.90
24518;DHT22;12678;51.336;12.406;2024-02-04T07:16:25;9.80;99.90
24518;DHT22;12678;51.336;12.406;2024-02-04T07:18:51;9.90;99.90
24518;DHT22;12678;51.336;12.406;2024-02-04T07:21:16;9.90;99.90
24518;DHT22;12678;51.336;12.406;2024-02-04T07:23:42;9.90;99.90
24518;DHT22;12678;51.336;12.406;2024-02-04T07:26:08;10.00;99.90
24518;DHT22;12678;51.336;12.406;2024-02-04T07:28:34;10.00;99.90
24518;DHT22;12678;51.336;12.406;2024-02-04T07:31:00;10.00;99.90
24518;DHT22;12678;51.336;12.406;2024-02-04T07:33:26;9.90;99.90
24518;DHT22;12678;51.336;12.406;2024-02-04T07:35:51;10.00;99.90
24518;DHT22;12678;51.336;12.406;2024-02-04T07:38:17;10.00;99.90
24518;DHT22;12678;51.336;12.406;2024-02-04T07:40:42;10.00;99.90
24518;DHT22;12678;51.336;12.406;2024-02-04T07:43:08;10.00;99.90
24518;DHT22;12678;51.336;12.406;2024-02-04T07:45:34;10.00;99.90
24518;DHT22;12678;51.336;12.406;2024-02-04T07:48:00;10.10;99.90
24518;DHT22;12678;51.336;12.406;2024-02-04T07:50:27;10.10;99.90
24518;DHT22;12678;51.336;12.406;2024-02-04T07:52:53;10.20;99.90
24518;DHT22;12678;51.336;12.406;2024-02-04T07:55:18;10.20;99.90
24518;DHT22;12678;51.336;12.406;2024-02-04T07:57:44;10.20;99.90
24518;DHT22;12678;51.336;12.406;2024-02-04T08:00:10;10.20;99.90
24518;DHT22;12678;51.336;12.406;2024-02-04T08:02:36;10.20;99.90
24518;DHT22;12678;51.336;12.406;2024-02-04T08:05:04;10.30;99.90
24518;DHT22;12678;51.336;12.406;2024-02-04T08:07:30;10.30;99.90
24518;DHT22;12678;51.336;12.406;2024-02-04T08:09:56;10.30;99.90
24518;DHT22;12678;51.336;12.406;2024-02-04T08:12:21;10.30;99.90
24518;DHT22;12678;51.336;12.406;2024-02-04T08:14:47;10.30;99.90
24518;DHT22;12678;51.336;12.406;2024-02-04T08:17:13;10.40;99.90
24518;DHT22;12678;51.336;12.406;2024-02-04T08:19:39;10.30;99.90
24518;DHT22;12678;51.336;12.406;2024-02-04T08:22:05;10.30;99.90
24518;DHT22;12678;51.336;12.406;2024-02-04T08:24:32;10.30;99.90
24518;DHT22;12678;51.336;12.406;2024-02-04T08:26:58;10.30;99.90
24518;DHT22;12678;51.336;12.406;2024-02-04T08:29:24;10.30;99.90
24518;DHT22;12678;51.336;12.406;2024-02-04T08:31:51;10.40;99.90
24518;DHT22;12678;51.336;12.406;2024-02-04T08:34:17;10.40;99.90
24518;DHT22;12678;51.336;12.406;2024-02-04T08:36:45;10.50;99.90
24518;DHT22;12678;51.336;12.406;2024-02-04T08:39:10;10.50;99.90
24518;DHT22;12678;51.336;12.406;2024-02-04T08:41:36;10.50;99.90
24518;DHT22;12678;51.336;12.406;2024-02-04T08:44:01;10.50;99.90
24518;DHT22;12678;51.336;12.406;2024-02-04T08:46:27;10.60;99.90
24518;DHT22;12678;51.336;12.406;2024-02-04T08:48:53;10.60;99.90
24518;DHT22;12678;51.336;12.406;2024-02-04T08:51:18;10.70;99.90
24518;DHT22;12678;51.336;12.406;2024-02-04T08:53:44;10.70;99.90
24518;DHT22;12678;51.336;12.406;2024-02-04T08:56:10;10.70;99.90
24518;DHT22;12678;51.336;12.406;2024-02-04T08:58:36;10.70;99.90
24518;DHT22;12678;51.336;12.406;2024-02-04T09:01:03;10.70;99.90
24518;DHT22;12678;51.336;12.406;2024-02-04T09:03:29;10.60;99.90
24518;DHT22;12678;51.336;12.406;2024-02-04T09:05:55;10.70;99.90
24518;DHT22;12678;51.336;12.406;2024-02-04T09:08:20;10.70;99.90
24518;DHT22;12678;51.336;12.406;2024-02-04T09:10:46;10.70;99.90
24518;DHT22;12678;51.336;12.406;2024-02-04T09:13:11;10.70;99.90
24518;DHT22;12678;51.336;12.406;2024-02-04T09:15:37;10.70;99.90
24518;DHT22;12678;51.336;12.406;2024-02-04T09:18:02;10.70;99.90
24518;DHT22;12678;51.336;12.406;2024-02-04T09:20:28;10.70;99.90
24518;DHT22;12678;51.336;12.406;2024-02-04T09:22:54;10.70;99.90
24518;DHT22;12678;51.336;12.406;2024-02-04T09:25:19;10.70;99.90
24518;DHT22;12678;51.336;12.406;2024-02-04T09:27:45;10.70;99.90
24518;DHT22;12678;51.336;12.406;2024-02-04T09:30:11;10.60;99.90
24518;DHT22;12678;51.336;12.406;2024-02-04T09:32:37;10.60;99.90
24518;DHT22;12678;51.336;12.406;2024-02-04T09:35:03;10.60;99.90
24518;DHT22;12678;51.336;12.406;2024-02-04T09:37:29;10.60;99.90
24518;DHT22;12678;51.336;12.406;2024-02-04T09:39:54;10.60;99.90
24518;DHT22;12678;51.336;12.406;2024-02-04T09:42:21;10.50;99.90
24518;DHT22;12678;51.336;12.406;2024-02-04T09:44:49;10.60;99.90
24518;DHT22;12678;51.336;12.406;2024-02-04T09:47:18;10.60;99.90
24518;DHT22;12678;51.336;12.406;2024-02-04T09:49:44;10.50;99.90
24518;DHT22;12678;51.336;12.406;2024-02-04T09:52:12;10.60;99.90
24518;DHT22;12678;51.336;12.406;2024-02-04T09:54:49;10.40;99.90
24518;DHT22;12678;51.336;12.406;2024-02-04T09:57:16;10.30;99.90
24518;DHT22;12678;51.336;12.406;2024-02-04T09:59:43;10.40;99.90
24518;DHT22;12678;51.336;12.406;2024-02-04T10:02:09;10.40;99.90
24518;DHT22;12678;51.336;12.406;2024-02-04T10:04:35;10.30;99.90
24518;DHT22;12678;51.336;12.406;2024-02-04T10:07:01;10.40;99.90
24518;DHT22;12678;51.336;12.406;2024-02-04T10:09:27;10.30;99.90
24518;DHT22;12678;51.336;12.406;2024-02-04T10:11:52;10.30;99.90
24518;DHT22;12678;51.336;12.406;2024-02-04T10:14:18;10.20;99.90
24518;DHT22;12678;51.336;12.406;2024-02-04T10:16:45;10.30;99.90
24518;DHT22;12678;51.336;12.406;2024-02-04T10:19:11;10.30;99.90
24518;DHT22;12678;51.336;12.406;2024-02-04T10:21:37;10.40;99.90
24518;DHT22;12678;51.336;12.406;2024-02-04T10:24:03;10.50;99.90
24518;DHT22;12678;51.336;12.406;2024-02-04T10:26:29;10.50;99.90
24518;DHT22;12678;51.336;12.406;2024-02-04T10:29:00;10.50;99.90
24518;DHT22;12678;51.336;12.406;2024-02-04T10:31:26;10.50;99.90
24518;DHT22;12678;51.336;12.406;2024-02-04T10:33:52;10.50;99.90
24518;DHT22;12678;51.336;12.406;2024-02-04T10:36:20;10.50;99.90
24518;DHT22;12678;51.336;12.406;2024-02-04T10:38:46;10.50;99.90
24518;DHT22;12678;51.336;12.406;2024-02-04T10:41:15;10.50;99.90
24518;DHT22;12678;51.336;12.406;2024-02-04T10:43:43;10.60;99.90
24518;DHT22;12678;51.336;12.406;2024-02-04T10:46:19;10.60;99.90
24518;DHT22;12678;51.336;12.406;2024-02-04T10:48:57;10.60;99.90
24518;DHT22;12678;51.336;12.406;2024-02-04T10:51:29;10.60;99.90
24518;DHT22;12678;51.336;12.406;2024-02-04T10:53:55;10.60;99.90
24518;DHT22;12678;51.336;12.406;2024-02-04T10:56:42;10.50;99.90
24518;DHT22;12678;51.336;12.406;2024-02-04T10:59:10;10.50;99.90
24518;DHT22;12678;51.336;12.406;2024-02-04T11:01:40;10.60;99.90
24518;DHT22;12678;51.336;12.406;2024-02-04T11:04:08;10.60;99.90
24518;DHT22;12678;51.336;12.406;2024-02-04T11:06:35;10.70;99.90
24518;DHT22;12678;51.336;12.406;2024-02-04T11:09:03;10.60;99.90
24518;DHT22;12678;51.336;12.406;2024-02-04T11:11:29;10.70;99.90
24518;DHT22;12678;51.336;12.406;2024-02-04T11:13:58;10.70;99.90
24518;DHT22;12678;51.336;12.406;2024-02-04T11:22:24;10.60;99.90
24518;DHT22;12678;51.336;12.406;2024-02-04T11:27:52;10.70;99.90
24518;DHT22;12678;51.336;12.406;2024-02-04T11:30:18;10.70;99.90
24518;DHT22;12678;51.336;12.406;2024-02-04T11:32:45;10.70;99.90
24518;DHT22;12678;51.336;12.406;2024-02-04T11:35:12;10.70;99.90
24518;DHT22;12678;51.336;12.406;2024-02-04T11:37:38;10.80;99.90
24518;DHT22;12678;51.336;12.406;2024-02-04T11:40:07;10.80;99.90
24518;DHT22;12678;51.336;12.406;2024-02-04T11:42:33;10.80;99.90
24518;DHT22;12678;51.336;12.406;2024-02-04T11:45:13;10.80;99.90
24518;DHT22;12678;51.336;12.406;2024-02-04T11:47:39;10.80;99.90
24518;DHT22;12678;51.336;12.406;2024-02-04T11:50:05;10.80;99.90
24518;DHT22;12678;51.336;12.406;2024-02-04T11:52:32;10.80;99.90
24518;DHT22;12678;51.336;12.406;2024-02-04T11:54:58;10.80;99.90
24518;DHT22;12678;51.336;12.406;2024-02-04T11:57:24;10.80;99.90
24518;DHT22;12678;51.336;12.406;2024-02-04T11:59:50;10.80;99.90
24518;DHT22;12678;51.336;12.406;2024-02-04T12:02:17;10.70;99.90
24518;DHT22;12678;51.336;12.406;2024-02-04T12:04:46;10.70;99.90
24518;DHT22;12678;51.336;12.406;2024-02-04T12:07:13;10.70;99.90
24518;DHT22;12678;51.336;12.406;2024-02-04T12:09:40;10.70;99.90
24518;DHT22;12678;51.336;12.406;2024-02-04T12:12:06;10.70;99.90
24518;DHT22;12678;51.336;12.406;2024-02-04T12:14:32;10.80;99.90
24518;DHT22;12678;51.336;12.406;2024-02-04T12:17:09;10.80;99.90
24518;DHT22;12678;51.336;12.406;2024-02-04T12:19:36;10.80;99.90
24518;DHT22;12678;51.336;12.406;2024-02-04T12:22:01;10.80;99.90
24518;DHT22;12678;51.336;12.406;2024-02-04T12:24:31;10.90;99.90
24518;DHT22;12678;51.336;12.406;2024-02-04T12:26:56;10.90;99.90
24518;DHT22;12678;51.336;12.406;2024-02-04T12:29:22;10.90;99.90
24518;DHT22;12678;51.336;12.406;2024-02-04T12:31:48;10.90;99.90
24518;DHT22;12678;51.336;12.406;2024-02-04T12:34:22;10.90;99.90
24518;DHT22;12678;51.336;12.406;2024-02-04T12:37:00;10.80;99.90
24518;DHT22;12678;51.336;12.406;2024-02-04T12:39:26;10.80;99.90
24518;DHT22;12678;51.336;12.406;2024-02-04T12:41:52;10.80;99.90
24518;DHT22;12678;51.336;12.406;2024-02-04T12:44:18;10.80;99.90
24518;DHT22;12678;51.336;12.406;2024-02-04T12:46:44;10.80;99.90
24518;DHT22;12678;51.336;12.406;2024-02-04T12:49:10;10.90;99.90
24518;DHT22;12678;51.336;12.406;2024-02-04T12:51:36;11.00;99.90
24518;DHT22;12678;51.336;12.406;2024-02-04T12:54:11;11.10;99.90
24518;DHT22;12678;51.336;12.406;2024-02-04T12:56:52;11.20;99.90
24518;DHT22;12678;51.336;12.406;2024-02-04T13:02:00;11.30;99.90
24518;DHT22;12678;51.336;12.406;2024-02-04T13:04:39;11.30;99.90
24518;DHT22;12678;51.336;12.406;2024-02-04T13:09:42;11.30;99.90
24518;DHT22;12678;51.336;12.406;2024-02-04T13:12:09;11.40;99.90
24518;DHT22;12678;51.336;12.406;2024-02-04T13:14:38;11.30;99.90
24518;DHT22;12678;51.336;12.406;2024-02-04T13:17:07;11.30;99.90
24518;DHT22;12678;51.336;12.406;2024-02-04T13:21:59;11.20;99.90
24518;DHT22;12678;51.336;12.406;2024-02-04T13:24:26;11.20;99.90
24518;DHT22;12678;51.336;12.406;2024-02-04T13:26:52;11.20;99.90
24518;DHT22;12678;51.336;12.406;2024-02-04T13:29:18;11.20;99.90
24518;DHT22;12678;51.336;12.406;2024-02-04T13:31:43;11.20;99.90
24518;DHT22;12678;51.336;12.406;2024-02-04T13:34:09;11.20;99.90
24518;DHT22;12678;51.336;12.406;2024-02-04T13:36:34;11.10;99.90
24518;DHT22;12678;51.336;12.406;2024-02-04T13:39:00;11.10;99.90
24518;DHT22;12678;51.336;12.406;2024-02-04T13:41:25;11.00;99.90
24518;DHT22;12678;51.336;12.406;2024-02-04T13:43:51;11.00;99.90
24518;DHT22;12678;51.336;12.406;2024-02-04T13:46:17;11.10;99.90
24518;DHT22;12678;51.336;12.406;2024-02-04T13:48:43;11.10;99.90
24518;DHT22;12678;51.336;12.406;2024-02-04T13:51:08;11.00;99.90
24518;DHT22;12678;51.336;12.406;2024-02-04T13:53:34;11.00;99.90
24518;DHT22;12678;51.336;12.406;2024-02-04T13:56:01;10.90;99.90
24518;DHT22;12678;51.336;12.406;2024-02-04T13:58:26;10.90;99.90
24518;DHT22;12678;51.336;12.406;2024-02-04T14:00:52;10.90;99.90
24518;DHT22;12678;51.336;12.406;2024-02-04T14:03:18;10.80;99.90
24518;DHT22;12678;51.336;12.406;2024-02-04T14:05:44;10.80;99.90
24518;DHT22;12678;51.336;12.406;2024-02-04T14:08:10;10.80;99.90
24518;DHT22;12678;51.336;12.406;2024-02-04T14:10:36;10.80;99.90
24518;DHT22;12678;51.336;12.406;2024-02-04T14:13:02;10.70;99.90
24518;DHT22;12678;51.336;12.406;2024-02-04T14:15:27;10.70;99.90
24518;DHT22;12678;51.336;12.406;2024-02-04T14:17:54;10.70;99.90
24518;DHT22;12678;51.336;12.406;2024-02-04T14:20:19;10.70;99.90
24518;DHT22;12678;51.336;12.406;2024-02-04T14:22:45;10.70;99.90
24518;DHT22;12678;51.336;12.406;2024-02-04T14:25:10;10.70;99.90
24518;DHT22;12678;51.336;12.406;2024-02-04T14:27:38;10.70;99.90
24518;DHT22;12678;51.336;12.406;2024-02-04T14:30:04;10.70;99.90
24518;DHT22;12678;51.336;12.406;2024-02-04T14:32:32;10.70;99.90
24518;DHT22;12678;51.336;12.406;2024-02-04T14:34:58;10.70;99.90
24518;DHT22;12678;51.336;12.406;2024-02-04T14:37:23;10.70;99.90
24518;DHT22;12678;51.336;12.406;2024-02-04T14:39:49;10.60;99.90
24518;DHT22;12678;51.336;12.406;2024-02-04T14:42:16;10.60;99.90
24518;DHT22;12678;51.336;12.406;2024-02-04T14:44:43;10.60;99.90
24518;DHT22;12678;51.336;12.406;2024-02-04T14:47:09;10.60;99.90
24518;DHT22;12678;51.336;12.406;2024-02-04T14:49:36;10.60;99.90
24518;DHT22;12678;51.336;12.406;2024-02-04T14:52:02;10.60;99.90
24518;DHT22;12678;51.336;12.406;2024-02-04T14:54:28;10.70;99.90
24518;DHT22;12678;51.336;12.406;2024-02-04T14:56:53;10.60;99.90
24518;DHT22;12678;51.336;12.406;2024-02-04T14:59:19;10.70;99.90
24518;DHT22;12678;51.336;12.406;2024-02-04T15:01:45;10.60;99.90
24518;DHT22;12678;51.336;12.406;2024-02-04T15:04:31;10.60;99.90
24518;DHT22;12678;51.336;12.406;2024-02-04T15:07:00;10.60;99.90
24518;DHT22;12678;51.336;12.406;2024-02-04T15:09:31;10.60;99.90
24518;DHT22;12678;51.336;12.406;2024-02-04T15:11:57;10.50;99.90
24518;DHT22;12678;51.336;12.406;2024-02-04T15:14:24;10.50;99.90
24518;DHT22;12678;51.336;12.406;2024-02-04T15:16:50;10.50;99.90
24518;DHT22;12678;51.336;12.406;2024-02-04T15:19:16;10.40;99.90
24518;DHT22;12678;51.336;12.406;2024-02-04T15:21:42;10.40;99.90
24518;DHT22;12678;51.336;12.406;2024-02-04T15:24:08;10.40;99.90
24518;DHT22;12678;51.336;12.406;2024-02-04T15:26:34;10.50;99.90
24518;DHT22;12678;51.336;12.406;2024-02-04T15:29:03;10.50;99.90
24518;DHT22;12678;51.336;12.406;2024-02-04T15:31:29;10.50;99.90
24518;DHT22;12678;51.336;12.406;2024-02-04T15:33:56;10.40;99.90
24518;DHT22;12678;51.336;12.406;2024-02-04T15:36:21;10.40;99.90